Alfarata, Pennsylvania
Current Conditions -  °F | °C
As of 3:53 PM on Thursday 20 Nov 2014 (Local Time) from KUNV Reporting Station
Scattered Clouds Scattered Clouds  
Wind Chill: 17°   Ceiling: Unl
Heat Index: 28°   Visibility: 10mi
Dew Point: 10°   Wind: 16mph
Humidity: 47%   Direction: 270°W
Pressure: 29.94"   Gusts: 24mph
Location:  40.7125°N, 77.3707°W
Report Text: KUNV 202053Z 27014G21KT 10SM SCT040 M02/M12 A2994
Loading
Personal Weather Stations






























Interactive Weather Map New forecast layout! Learn more

10-Day Weather Forecast

Advertisements
Track Severe Weather on mobile